sensor_id;sensor_type;location;lat;lon;timestamp;P1;durP1;ratioP1;P2;durP2;ratioP2
35294;SDS011;21413;48.032;7.764;2023-08-17T00:00:14;3.70;;;3.60;;
35294;SDS011;21413;48.032;7.764;2023-08-17T00:02:40;3.57;;;3.47;;
35294;SDS011;21413;48.032;7.764;2023-08-17T00:05:09;7.77;;;3.10;;
35294;SDS011;21413;48.032;7.764;2023-08-17T00:07:38;3.50;;;3.40;;
35294;SDS011;21413;48.032;7.764;2023-08-17T00:10:04;5.63;;;3.50;;
35294;SDS011;21413;48.032;7.764;2023-08-17T00:12:30;3.10;;;3.00;;
35294;SDS011;21413;48.032;7.764;2023-08-17T00:14:56;6.00;;;3.30;;
35294;SDS011;21413;48.032;7.764;2023-08-17T00:17:24;3.33;;;3.23;;
35294;SDS011;21413;48.032;7.764;2023-08-17T00:19:50;3.40;;;3.17;;
35294;SDS011;21413;48.032;7.764;2023-08-17T00:22:16;3.80;;;3.70;;
35294;SDS011;21413;48.032;7.764;2023-08-17T00:24:42;4.07;;;3.77;;
35294;SDS011;21413;48.032;7.764;2023-08-17T00:27:10;4.30;;;3.63;;
35294;SDS011;21413;48.032;7.764;2023-08-17T00:29:36;4.43;;;3.97;;
35294;SDS011;21413;48.032;7.764;2023-08-17T00:32:02;8.90;;;4.07;;
35294;SDS011;21413;48.032;7.764;2023-08-17T00:34:28;3.87;;;3.63;;
35294;SDS011;21413;48.032;7.764;2023-08-17T00:36:57;4.20;;;3.73;;
35294;SDS011;21413;48.032;7.764;2023-08-17T00:39:23;3.63;;;3.30;;
35294;SDS011;21413;48.032;7.764;2023-08-17T00:41:49;3.77;;;3.40;;
35294;SDS011;21413;48.032;7.764;2023-08-17T00:44:15;4.37;;;4.07;;
35294;SDS011;21413;48.032;7.764;2023-08-17T00:46:41;3.97;;;3.87;;
35294;SDS011;21413;48.032;7.764;2023-08-17T00:49:09;4.83;;;3.97;;
35294;SDS011;21413;48.032;7.764;2023-08-17T00:51:36;4.57;;;3.90;;
35294;SDS011;21413;48.032;7.764;2023-08-17T00:54:02;4.27;;;3.90;;
35294;SDS011;21413;48.032;7.764;2023-08-17T00:56:28;4.37;;;3.97;;
35294;SDS011;21413;48.032;7.764;2023-08-17T00:58:55;3.83;;;3.60;;
35294;SDS011;21413;48.032;7.764;2023-08-17T01:01:21;3.90;;;3.73;;
35294;SDS011;21413;48.032;7.764;2023-08-17T01:03:49;3.50;;;3.30;;
35294;SDS011;21413;48.032;7.764;2023-08-17T01:06:15;4.37;;;4.03;;
35294;SDS011;21413;48.032;7.764;2023-08-17T01:08:42;5.13;;;4.60;;
35294;SDS011;21413;48.032;7.764;2023-08-17T01:11:13;4.00;;;3.80;;
35294;SDS011;21413;48.032;7.764;2023-08-17T01:16:15;5.17;;;4.10;;
35294;SDS011;21413;48.032;7.764;2023-08-17T01:18:47;7.97;;;4.43;;
35294;SDS011;21413;48.032;7.764;2023-08-17T01:21:21;5.47;;;4.97;;
35294;SDS011;21413;48.032;7.764;2023-08-17T01:23:49;5.80;;;5.40;;
35294;SDS011;21413;48.032;7.764;2023-08-17T01:26:16;5.33;;;4.20;;
35294;SDS011;21413;48.032;7.764;2023-08-17T01:28:43;4.90;;;4.60;;
35294;SDS011;21413;48.032;7.764;2023-08-17T01:31:17;7.17;;;4.50;;
35294;SDS011;21413;48.032;7.764;2023-08-17T01:33:49;5.53;;;5.03;;
35294;SDS011;21413;48.032;7.764;2023-08-17T01:38:45;5.37;;;4.97;;
35294;SDS011;21413;48.032;7.764;2023-08-17T01:41:11;8.50;;;4.70;;
35294;SDS011;21413;48.032;7.764;2023-08-17T01:43:41;5.30;;;4.90;;
35294;SDS011;21413;48.032;7.764;2023-08-17T01:46:12;4.77;;;4.57;;
35294;SDS011;21413;48.032;7.764;2023-08-17T01:48:39;4.47;;;4.30;;
35294;SDS011;21413;48.032;7.764;2023-08-17T01:51:05;4.67;;;4.37;;
35294;SDS011;21413;48.032;7.764;2023-08-17T01:53:31;5.10;;;4.17;;
35294;SDS011;21413;48.032;7.764;2023-08-17T01:55:57;4.93;;;4.47;;
35294;SDS011;21413;48.032;7.764;2023-08-17T01:58:23;6.40;;;4.20;;
35294;SDS011;21413;48.032;7.764;2023-08-17T02:00:51;4.70;;;3.80;;
35294;SDS011;21413;48.032;7.764;2023-08-17T02:03:17;4.57;;;4.27;;
35294;SDS011;21413;48.032;7.764;2023-08-17T02:05:46;4.33;;;4.10;;
35294;SDS011;21413;48.032;7.764;2023-08-17T02:08:14;4.47;;;4.27;;
35294;SDS011;21413;48.032;7.764;2023-08-17T02:10:40;5.77;;;5.37;;
35294;SDS011;21413;48.032;7.764;2023-08-17T02:13:06;5.43;;;5.03;;
35294;SDS011;21413;48.032;7.764;2023-08-17T02:15:32;4.27;;;4.10;;
35294;SDS011;21413;48.032;7.764;2023-08-17T02:18:03;6.23;;;4.20;;
35294;SDS011;21413;48.032;7.764;2023-08-17T02:20:29;4.57;;;4.27;;
35294;SDS011;21413;48.032;7.764;2023-08-17T02:22:55;5.10;;;4.80;;
35294;SDS011;21413;48.032;7.764;2023-08-17T02:25:21;9.43;;;4.60;;
35294;SDS011;21413;48.032;7.764;2023-08-17T02:27:47;4.27;;;4.00;;
35294;SDS011;21413;48.032;7.764;2023-08-17T02:30:15;4.43;;;4.23;;
35294;SDS011;21413;48.032;7.764;2023-08-17T02:32:41;4.60;;;4.30;;
35294;SDS011;21413;48.032;7.764;2023-08-17T02:35:07;10.03;;;4.83;;
35294;SDS011;21413;48.032;7.764;2023-08-17T02:37:33;6.87;;;3.87;;
35294;SDS011;21413;48.032;7.764;2023-08-17T02:39:59;4.33;;;4.10;;
35294;SDS011;21413;48.032;7.764;2023-08-17T02:42:25;5.63;;;4.40;;
35294;SDS011;21413;48.032;7.764;2023-08-17T02:44:51;6.00;;;4.97;;
35294;SDS011;21413;48.032;7.764;2023-08-17T02:47:17;5.10;;;4.83;;
35294;SDS011;21413;48.032;7.764;2023-08-17T02:49:46;4.90;;;4.60;;
35294;SDS011;21413;48.032;7.764;2023-08-17T02:52:14;6.07;;;5.67;;
35294;SDS011;21413;48.032;7.764;2023-08-17T02:54:42;7.33;;;6.63;;
35294;SDS011;21413;48.032;7.764;2023-08-17T02:57:08;7.40;;;6.83;;
35294;SDS011;21413;48.032;7.764;2023-08-17T02:59:37;8.60;;;7.80;;
35294;SDS011;21413;48.032;7.764;2023-08-17T03:02:03;8.33;;;7.33;;
35294;SDS011;21413;48.032;7.764;2023-08-17T03:04:29;9.30;;;7.60;;
35294;SDS011;21413;48.032;7.764;2023-08-17T03:06:55;11.47;;;7.00;;
35294;SDS011;21413;48.032;7.764;2023-08-17T03:09:21;8.63;;;7.90;;
35294;SDS011;21413;48.032;7.764;2023-08-17T03:11:46;7.40;;;6.90;;
35294;SDS011;21413;48.032;7.764;2023-08-17T03:14:12;7.13;;;6.73;;
35294;SDS011;21413;48.032;7.764;2023-08-17T03:16:38;8.37;;;7.60;;
35294;SDS011;21413;48.032;7.764;2023-08-17T03:19:07;7.60;;;7.00;;
35294;SDS011;21413;48.032;7.764;2023-08-17T03:21:35;9.60;;;8.27;;
35294;SDS011;21413;48.032;7.764;2023-08-17T03:24:01;13.40;;;8.43;;
35294;SDS011;21413;48.032;7.764;2023-08-17T03:26:30;10.23;;;8.33;;
35294;SDS011;21413;48.032;7.764;2023-08-17T03:28:56;9.43;;;8.40;;
35294;SDS011;21413;48.032;7.764;2023-08-17T03:31:22;8.80;;;7.97;;
35294;SDS011;21413;48.032;7.764;2023-08-17T03:33:48;15.70;;;7.97;;
35294;SDS011;21413;48.032;7.764;2023-08-17T03:36:17;9.03;;;8.13;;
35294;SDS011;21413;48.032;7.764;2023-08-17T03:38:43;10.40;;;8.90;;
35294;SDS011;21413;48.032;7.764;2023-08-17T03:41:10;10.00;;;9.00;;
35294;SDS011;21413;48.032;7.764;2023-08-17T03:43:36;11.57;;;9.60;;
35294;SDS011;21413;48.032;7.764;2023-08-17T03:46:04;22.77;;;9.67;;
35294;SDS011;21413;48.032;7.764;2023-08-17T03:48:32;13.33;;;10.77;;
35294;SDS011;21413;48.032;7.764;2023-08-17T03:50:58;10.37;;;9.13;;
35294;SDS011;21413;48.032;7.764;2023-08-17T03:53:26;11.77;;;9.97;;
35294;SDS011;21413;48.032;7.764;2023-08-17T03:55:52;15.50;;;12.13;;
35294;SDS011;21413;48.032;7.764;2023-08-17T03:58:18;15.43;;;10.70;;
35294;SDS011;21413;48.032;7.764;2023-08-17T04:00:50;14.90;;;13.27;;
35294;SDS011;21413;48.032;7.764;2023-08-17T04:03:16;14.77;;;13.10;;
35294;SDS011;21413;48.032;7.764;2023-08-17T04:05:43;14.67;;;12.43;;
35294;SDS011;21413;48.032;7.764;2023-08-17T04:08:09;13.47;;;11.20;;
35294;SDS011;21413;48.032;7.764;2023-08-17T04:10:35;20.73;;;14.00;;
35294;SDS011;21413;48.032;7.764;2023-08-17T04:13:00;18.90;;;14.03;;
35294;SDS011;21413;48.032;7.764;2023-08-17T04:15:29;24.13;;;15.70;;
35294;SDS011;21413;48.032;7.764;2023-08-17T04:17:55;23.07;;;14.50;;
35294;SDS011;21413;48.032;7.764;2023-08-17T04:20:21;20.20;;;15.07;;
35294;SDS011;21413;48.032;7.764;2023-08-17T04:22:47;23.73;;;16.20;;
35294;SDS011;21413;48.032;7.764;2023-08-17T04:25:14;21.57;;;15.83;;
35294;SDS011;21413;48.032;7.764;2023-08-17T04:27:40;25.30;;;15.70;;
35294;SDS011;21413;48.032;7.764;2023-08-17T04:30:07;25.40;;;16.70;;
35294;SDS011;21413;48.032;7.764;2023-08-17T04:32:33;21.20;;;15.23;;
35294;SDS011;21413;48.032;7.764;2023-08-17T04:34:59;20.30;;;14.53;;
35294;SDS011;21413;48.032;7.764;2023-08-17T04:37:26;22.50;;;14.67;;
35294;SDS011;21413;48.032;7.764;2023-08-17T04:39:52;19.80;;;14.43;;
35294;SDS011;21413;48.032;7.764;2023-08-17T04:42:18;23.93;;;16.20;;
35294;SDS011;21413;48.032;7.764;2023-08-17T04:44:45;25.20;;;16.00;;
35294;SDS011;21413;48.032;7.764;2023-08-17T04:47:11;23.27;;;15.63;;
35294;SDS011;21413;48.032;7.764;2023-08-17T04:49:37;23.07;;;14.57;;
35294;SDS011;21413;48.032;7.764;2023-08-17T04:52:03;21.03;;;15.23;;
35294;SDS011;21413;48.032;7.764;2023-08-17T04:54:29;26.90;;;17.57;;
35294;SDS011;21413;48.032;7.764;2023-08-17T04:56:55;26.60;;;16.97;;
35294;SDS011;21413;48.032;7.764;2023-08-17T04:59:21;26.33;;;17.90;;
35294;SDS011;21413;48.032;7.764;2023-08-17T05:01:54;22.33;;;16.13;;
35294;SDS011;21413;48.032;7.764;2023-08-17T05:04:20;24.13;;;16.67;;
35294;SDS011;21413;48.032;7.764;2023-08-17T05:06:46;17.63;;;14.63;;
35294;SDS011;21413;48.032;7.764;2023-08-17T05:09:12;20.10;;;15.90;;
35294;SDS011;21413;48.032;7.764;2023-08-17T05:11:40;25.93;;;17.80;;
35294;SDS011;21413;48.032;7.764;2023-08-17T05:14:07;21.07;;;16.57;;
35294;SDS011;21413;48.032;7.764;2023-08-17T05:16:34;20.67;;;17.30;;
35294;SDS011;21413;48.032;7.764;2023-08-17T05:19:00;29.47;;;18.23;;
35294;SDS011;21413;48.032;7.764;2023-08-17T05:21:26;24.03;;;16.97;;
35294;SDS011;21413;48.032;7.764;2023-08-17T05:23:52;26.53;;;16.40;;
35294;SDS011;21413;48.032;7.764;2023-08-17T05:26:24;25.60;;;17.30;;
35294;SDS011;21413;48.032;7.764;2023-08-17T05:28:50;25.10;;;17.10;;
35294;SDS011;21413;48.032;7.764;2023-08-17T05:31:18;22.47;;;16.87;;
35294;SDS011;21413;48.032;7.764;2023-08-17T05:33:46;24.77;;;16.80;;
35294;SDS011;21413;48.032;7.764;2023-08-17T05:36:12;22.97;;;17.00;;
35294;SDS011;21413;48.032;7.764;2023-08-17T05:38:39;24.47;;;19.97;;
35294;SDS011;21413;48.032;7.764;2023-08-17T05:41:07;22.93;;;16.50;;
35294;SDS011;21413;48.032;7.764;2023-08-17T05:43:34;29.43;;;18.60;;
35294;SDS011;21413;48.032;7.764;2023-08-17T05:46:00;22.00;;;17.07;;
35294;SDS011;21413;48.032;7.764;2023-08-17T05:48:26;28.10;;;16.53;;
35294;SDS011;21413;48.032;7.764;2023-08-17T05:50:52;28.33;;;17.53;;
35294;SDS011;21413;48.032;7.764;2023-08-17T05:53:20;26.53;;;19.70;;
35294;SDS011;21413;48.032;7.764;2023-08-17T05:55:46;76.40;;;49.27;;
35294;SDS011;21413;48.032;7.764;2023-08-17T05:58:12;27.33;;;20.27;;
35294;SDS011;21413;48.032;7.764;2023-08-17T06:00:38;66.97;;;40.93;;
35294;SDS011;21413;48.032;7.764;2023-08-17T06:03:04;86.47;;;51.33;;
35294;SDS011;21413;48.032;7.764;2023-08-17T06:05:34;44.23;;;27.80;;
35294;SDS011;21413;48.032;7.764;2023-08-17T06:07:59;153.90;;;90.03;;
35294;SDS011;21413;48.032;7.764;2023-08-17T06:10:26;43.00;;;29.37;;
35294;SDS011;21413;48.032;7.764;2023-08-17T06:12:55;68.57;;;45.23;;
35294;SDS011;21413;48.032;7.764;2023-08-17T06:15:24;28.67;;;21.67;;
35294;SDS011;21413;48.032;7.764;2023-08-17T06:17:50;20.17;;;16.60;;
35294;SDS011;21413;48.032;7.764;2023-08-17T06:20:16;28.23;;;16.70;;
35294;SDS011;21413;48.032;7.764;2023-08-17T06:22:42;19.73;;;16.27;;
35294;SDS011;21413;48.032;7.764;2023-08-17T06:25:08;22.70;;;18.47;;
35294;SDS011;21413;48.032;7.764;2023-08-17T06:27:34;19.90;;;15.63;;
35294;SDS011;21413;48.032;7.764;2023-08-17T06:30:02;23.97;;;18.20;;
35294;SDS011;21413;48.032;7.764;2023-08-17T06:32:31;26.90;;;20.00;;
35294;SDS011;21413;48.032;7.764;2023-08-17T06:34:57;25.50;;;17.57;;
35294;SDS011;21413;48.032;7.764;2023-08-17T06:37:23;31.20;;;20.47;;
35294;SDS011;21413;48.032;7.764;2023-08-17T06:39:49;30.83;;;18.70;;
35294;SDS011;21413;48.032;7.764;2023-08-17T06:42:15;33.10;;;21.20;;
35294;SDS011;21413;48.032;7.764;2023-08-17T06:44:41;30.23;;;21.47;;
35294;SDS011;21413;48.032;7.764;2023-08-17T06:47:07;35.00;;;21.97;;
35294;SDS011;21413;48.032;7.764;2023-08-17T06:49:34;33.07;;;22.43;;
35294;SDS011;21413;48.032;7.764;2023-08-17T06:52:02;28.37;;;19.73;;
35294;SDS011;21413;48.032;7.764;2023-08-17T06:54:28;32.20;;;20.20;;
35294;SDS011;21413;48.032;7.764;2023-08-17T06:56:55;27.07;;;18.77;;
35294;SDS011;21413;48.032;7.764;2023-08-17T06:59:21;29.17;;;20.37;;
35294;SDS011;21413;48.032;7.764;2023-08-17T07:01:47;28.10;;;18.87;;
35294;SDS011;21413;48.032;7.764;2023-08-17T07:04:13;28.70;;;19.17;;
35294;SDS011;21413;48.032;7.764;2023-08-17T07:06:40;25.87;;;18.60;;
35294;SDS011;21413;48.032;7.764;2023-08-17T07:09:06;27.17;;;18.77;;
35294;SDS011;21413;48.032;7.764;2023-08-17T07:11:32;19.70;;;17.17;;
35294;SDS011;21413;48.032;7.764;2023-08-17T07:13:58;28.07;;;20.33;;
35294;SDS011;21413;48.032;7.764;2023-08-17T07:16:24;25.83;;;19.20;;
35294;SDS011;21413;48.032;7.764;2023-08-17T07:18:50;27.73;;;19.70;;
35294;SDS011;21413;48.032;7.764;2023-08-17T07:21:18;25.60;;;18.30;;
35294;SDS011;21413;48.032;7.764;2023-08-17T07:23:44;18.87;;;16.83;;
35294;SDS011;21413;48.032;7.764;2023-08-17T07:26:12;25.03;;;18.23;;
35294;SDS011;21413;48.032;7.764;2023-08-17T07:28:38;29.43;;;19.33;;
35294;SDS011;21413;48.032;7.764;2023-08-17T07:31:04;26.67;;;18.70;;
35294;SDS011;21413;48.032;7.764;2023-08-17T07:33:32;27.53;;;17.80;;
35294;SDS011;21413;48.032;7.764;2023-08-17T07:35:58;27.90;;;19.30;;
35294;SDS011;21413;48.032;7.764;2023-08-17T07:38:24;28.80;;;19.57;;
35294;SDS011;21413;48.032;7.764;2023-08-17T07:40:50;27.77;;;18.80;;
35294;SDS011;21413;48.032;7.764;2023-08-17T07:43:16;22.50;;;18.27;;
35294;SDS011;21413;48.032;7.764;2023-08-17T07:45:44;22.77;;;17.77;;
35294;SDS011;21413;48.032;7.764;2023-08-17T07:48:10;19.50;;;17.20;;
35294;SDS011;21413;48.032;7.764;2023-08-17T07:50:37;22.53;;;17.00;;
35294;SDS011;21413;48.032;7.764;2023-08-17T07:53:03;22.50;;;18.13;;
35294;SDS011;21413;48.032;7.764;2023-08-17T07:55:29;20.93;;;17.77;;
35294;SDS011;21413;48.032;7.764;2023-08-17T07:57:57;26.23;;;20.10;;
35294;SDS011;21413;48.032;7.764;2023-08-17T08:00:23;27.83;;;18.20;;
35294;SDS011;21413;48.032;7.764;2023-08-17T08:02:49;20.27;;;16.70;;
35294;SDS011;21413;48.032;7.764;2023-08-17T08:05:15;22.30;;;17.07;;
35294;SDS011;21413;48.032;7.764;2023-08-17T08:07:44;24.00;;;15.70;;
35294;SDS011;21413;48.032;7.764;2023-08-17T08:10:10;18.27;;;15.17;;
35294;SDS011;21413;48.032;7.764;2023-08-17T08:12:35;22.07;;;17.37;;
35294;SDS011;21413;48.032;7.764;2023-08-17T08:15:02;29.47;;;16.13;;
35294;SDS011;21413;48.032;7.764;2023-08-17T08:17:28;24.87;;;16.67;;
35294;SDS011;21413;48.032;7.764;2023-08-17T08:19:53;23.40;;;17.40;;
35294;SDS011;21413;48.032;7.764;2023-08-17T08:22:20;24.00;;;17.23;;
35294;SDS011;21413;48.032;7.764;2023-08-17T08:24:46;28.55;;;19.77;;
35294;SDS011;21413;48.032;7.764;2023-08-17T08:27:12;21.17;;;17.90;;
35294;SDS011;21413;48.032;7.764;2023-08-17T08:29:38;22.37;;;18.33;;
35294;SDS011;21413;48.032;7.764;2023-08-17T08:32:04;21.00;;;16.03;;
35294;SDS011;21413;48.032;7.764;2023-08-17T08:34:33;20.07;;;15.70;;
35294;SDS011;21413;48.032;7.764;2023-08-17T08:36:59;22.50;;;16.30;;
35294;SDS011;21413;48.032;7.764;2023-08-17T08:39:28;24.60;;;16.90;;
35294;SDS011;21413;48.032;7.764;2023-08-17T08:41:54;21.03;;;16.20;;
35294;SDS011;21413;48.032;7.764;2023-08-17T08:44:20;31.13;;;19.20;;
35294;SDS011;21413;48.032;7.764;2023-08-17T08:46:46;23.03;;;17.50;;
35294;SDS011;21413;48.032;7.764;2023-08-17T08:49:12;23.67;;;18.33;;
35294;SDS011;21413;48.032;7.764;2023-08-17T08:51:41;26.60;;;18.90;;
35294;SDS011;21413;48.032;7.764;2023-08-17T08:54:08;25.93;;;19.80;;
35294;SDS011;21413;48.032;7.764;2023-08-17T08:56:37;21.40;;;16.60;;
35294;SDS011;21413;48.032;7.764;2023-08-17T08:59:06;19.10;;;16.67;;
35294;SDS011;21413;48.032;7.764;2023-08-17T09:01:33;25.20;;;20.67;;
35294;SDS011;21413;48.032;7.764;2023-08-17T09:03:59;20.73;;;17.00;;
35294;SDS011;21413;48.032;7.764;2023-08-17T09:06:26;19.43;;;15.33;;
35294;SDS011;21413;48.032;7.764;2023-08-17T09:08:52;22.60;;;17.53;;
35294;SDS011;21413;48.032;7.764;2023-08-17T09:11:18;37.43;;;27.17;;
35294;SDS011;21413;48.032;7.764;2023-08-17T09:13:47;32.47;;;24.10;;
35294;SDS011;21413;48.032;7.764;2023-08-17T09:16:13;20.83;;;17.30;;
35294;SDS011;21413;48.032;7.764;2023-08-17T09:18:39;33.73;;;21.57;;
35294;SDS011;21413;48.032;7.764;2023-08-17T09:21:07;107.33;;;56.53;;
35294;SDS011;21413;48.032;7.764;2023-08-17T09:23:35;22.13;;;19.07;;
35294;SDS011;21413;48.032;7.764;2023-08-17T09:26:07;21.63;;;18.30;;
35294;SDS011;21413;48.032;7.764;2023-08-17T09:28:34;20.33;;;15.47;;
35294;SDS011;21413;48.032;7.764;2023-08-17T09:31:07;21.87;;;15.60;;
35294;SDS011;21413;48.032;7.764;2023-08-17T09:33:33;18.17;;;15.23;;
35294;SDS011;21413;48.032;7.764;2023-08-17T09:36:00;13.97;;;12.53;;
35294;SDS011;21413;48.032;7.764;2023-08-17T09:38:26;14.77;;;12.90;;
35294;SDS011;21413;48.032;7.764;2023-08-17T09:40:53;15.90;;;13.17;;
35294;SDS011;21413;48.032;7.764;2023-08-17T09:43:21;22.97;;;16.77;;
35294;SDS011;21413;48.032;7.764;2023-08-17T09:45:48;18.90;;;15.17;;
35294;SDS011;21413;48.032;7.764;2023-08-17T09:48:17;17.17;;;15.37;;
35294;SDS011;21413;48.032;7.764;2023-08-17T09:50:44;17.37;;;13.80;;
35294;SDS011;21413;48.032;7.764;2023-08-17T09:53:16;18.90;;;14.23;;
35294;SDS011;21413;48.032;7.764;2023-08-17T09:55:43;19.37;;;13.43;;
35294;SDS011;21413;48.032;7.764;2023-08-17T09:58:09;14.27;;;12.80;;
35294;SDS011;21413;48.032;7.764;2023-08-17T10:00:40;19.13;;;12.93;;
35294;SDS011;21413;48.032;7.764;2023-08-17T10:03:09;11.40;;;10.43;;
35294;SDS011;21413;48.032;7.764;2023-08-17T10:05:38;16.90;;;12.00;;
35294;SDS011;21413;48.032;7.764;2023-08-17T10:08:06;13.87;;;11.03;;
35294;SDS011;21413;48.032;7.764;2023-08-17T10:10:34;11.63;;;9.47;;
35294;SDS011;21413;48.032;7.764;2023-08-17T10:13:04;10.90;;;9.43;;
35294;SDS011;21413;48.032;7.764;2023-08-17T10:15:35;11.10;;;8.77;;
35294;SDS011;21413;48.032;7.764;2023-08-17T10:18:12;9.37;;;8.53;;
35294;SDS011;21413;48.032;7.764;2023-08-17T10:20:41;11.80;;;10.47;;
35294;SDS011;21413;48.032;7.764;2023-08-17T10:23:16;9.70;;;8.90;;
35294;SDS011;21413;48.032;7.764;2023-08-17T10:25:43;9.73;;;8.30;;
35294;SDS011;21413;48.032;7.764;2023-08-17T10:28:09;10.37;;;8.20;;
35294;SDS011;21413;48.032;7.764;2023-08-17T10:30:36;9.87;;;7.97;;
35294;SDS011;21413;48.032;7.764;2023-08-17T10:33:02;9.20;;;8.50;;
35294;SDS011;21413;48.032;7.764;2023-08-17T10:35:30;9.43;;;7.93;;
35294;SDS011;21413;48.032;7.764;2023-08-17T10:37:56;8.57;;;7.97;;
35294;SDS011;21413;48.032;7.764;2023-08-17T10:40:26;8.43;;;7.63;;
35294;SDS011;21413;48.032;7.764;2023-08-17T10:42:53;8.40;;;7.60;;
35294;SDS011;21413;48.032;7.764;2023-08-17T10:45:30;7.90;;;7.20;;
35294;SDS011;21413;48.032;7.764;2023-08-17T10:48:00;7.00;;;6.50;;
35294;SDS011;21413;48.032;7.764;2023-08-17T10:50:26;7.87;;;7.17;;
35294;SDS011;21413;48.032;7.764;2023-08-17T10:52:55;7.03;;;6.40;;
35294;SDS011;21413;48.032;7.764;2023-08-17T10:58:26;7.57;;;7.10;;
35294;SDS011;21413;48.032;7.764;2023-08-17T11:00:55;6.30;;;5.90;;
35294;SDS011;21413;48.032;7.764;2023-08-17T11:03:24;6.73;;;6.23;;
35294;SDS011;21413;48.032;7.764;2023-08-17T11:11:04;6.00;;;5.63;;
35294;SDS011;21413;48.032;7.764;2023-08-17T11:13:31;5.47;;;5.27;;
35294;SDS011;21413;48.032;7.764;2023-08-17T11:15:58;9.70;;;6.17;;
35294;SDS011;21413;48.032;7.764;2023-08-17T11:18:24;5.67;;;5.47;;
35294;SDS011;21413;48.032;7.764;2023-08-17T11:20:50;5.73;;;5.33;;
35294;SDS011;21413;48.032;7.764;2023-08-17T11:23:17;5.67;;;5.27;;
35294;SDS011;21413;48.032;7.764;2023-08-17T11:25:46;5.40;;;5.00;;
35294;SDS011;21413;48.032;7.764;2023-08-17T11:28:16;5.97;;;4.70;;
35294;SDS011;21413;48.032;7.764;2023-08-17T11:30:52;8.83;;;4.80;;
35294;SDS011;21413;48.032;7.764;2023-08-17T11:33:21;5.00;;;4.80;;
35294;SDS011;21413;48.032;7.764;2023-08-17T11:35:50;4.97;;;4.57;;
35294;SDS011;21413;48.032;7.764;2023-08-17T11:38:16;8.10;;;4.90;;
35294;SDS011;21413;48.032;7.764;2023-08-17T11:40:42;4.83;;;4.60;;
35294;SDS011;21413;48.032;7.764;2023-08-17T11:43:08;5.03;;;4.73;;
35294;SDS011;21413;48.032;7.764;2023-08-17T11:45:37;5.33;;;5.03;;
35294;SDS011;21413;48.032;7.764;2023-08-17T11:48:03;5.03;;;4.73;;
35294;SDS011;21413;48.032;7.764;2023-08-17T11:50:32;5.80;;;4.90;;
35294;SDS011;21413;48.032;7.764;2023-08-17T11:53:01;5.43;;;4.70;;
35294;SDS011;21413;48.032;7.764;2023-08-17T11:55:27;6.47;;;5.00;;
35294;SDS011;21413;48.032;7.764;2023-08-17T11:57:53;5.10;;;4.87;;
35294;SDS011;21413;48.032;7.764;2023-08-17T12:00:20;6.93;;;5.20;;
35294;SDS011;21413;48.032;7.764;2023-08-17T12:02:46;5.73;;;5.20;;
35294;SDS011;21413;48.032;7.764;2023-08-17T12:05:13;4.97;;;4.67;;
35294;SDS011;21413;48.032;7.764;2023-08-17T12:07:41;4.10;;;4.00;;
35294;SDS011;21413;48.032;7.764;2023-08-17T12:10:10;4.27;;;3.87;;
35294;SDS011;21413;48.032;7.764;2023-08-17T12:12:36;7.40;;;4.50;;
35294;SDS011;21413;48.032;7.764;2023-08-17T12:15:03;4.97;;;4.50;;
35294;SDS011;21413;48.032;7.764;2023-08-17T12:17:29;9.97;;;4.20;;
35294;SDS011;21413;48.032;7.764;2023-08-17T12:19:58;6.37;;;3.77;;
35294;SDS011;21413;48.032;7.764;2023-08-17T12:22:27;4.93;;;4.27;;
35294;SDS011;21413;48.032;7.764;2023-08-17T12:24:53;5.30;;;4.80;;
35294;SDS011;21413;48.032;7.764;2023-08-17T12:27:22;22.30;;;15.60;;
35294;SDS011;21413;48.032;7.764;2023-08-17T12:29:49;18.47;;;13.10;;
35294;SDS011;21413;48.032;7.764;2023-08-17T12:32:19;33.40;;;23.60;;
35294;SDS011;21413;48.032;7.764;2023-08-17T12:34:46;6.57;;;5.97;;
35294;SDS011;21413;48.032;7.764;2023-08-17T12:37:17;25.73;;;15.70;;
35294;SDS011;21413;48.032;7.764;2023-08-17T12:39:44;13.63;;;10.87;;
35294;SDS011;21413;48.032;7.764;2023-08-17T12:42:09;4.17;;;3.77;;
35294;SDS011;21413;48.032;7.764;2023-08-17T12:44:38;4.17;;;3.87;;
35294;SDS011;21413;48.032;7.764;2023-08-17T12:47:07;7.60;;;4.47;;
35294;SDS011;21413;48.032;7.764;2023-08-17T12:49:33;4.47;;;4.17;;
35294;SDS011;21413;48.032;7.764;2023-08-17T12:51:59;5.77;;;4.00;;
35294;SDS011;21413;48.032;7.764;2023-08-17T12:54:25;5.40;;;4.20;;
35294;SDS011;21413;48.032;7.764;2023-08-17T12:56:51;5.40;;;4.10;;
35294;SDS011;21413;48.032;7.764;2023-08-17T12:59:19;4.47;;;3.93;;
35294;SDS011;21413;48.032;7.764;2023-08-17T13:01:45;4.33;;;3.97;;
35294;SDS011;21413;48.032;7.764;2023-08-17T13:04:11;3.97;;;3.70;;
35294;SDS011;21413;48.032;7.764;2023-08-17T13:06:37;5.53;;;4.17;;
35294;SDS011;21413;48.032;7.764;2023-08-17T13:09:04;3.77;;;3.43;;
35294;SDS011;21413;48.032;7.764;2023-08-17T13:11:30;10.27;;;4.80;;
35294;SDS011;21413;48.032;7.764;2023-08-17T13:13:57;4.17;;;3.80;;
35294;SDS011;21413;48.032;7.764;2023-08-17T13:16:23;4.40;;;4.20;;
35294;SDS011;21413;48.032;7.764;2023-08-17T13:18:49;4.93;;;4.43;;
35294;SDS011;21413;48.032;7.764;2023-08-17T13:21:17;7.00;;;4.53;;
35294;SDS011;21413;48.032;7.764;2023-08-17T13:23:44;6.87;;;4.03;;
35294;SDS011;21413;48.032;7.764;2023-08-17T13:26:10;7.37;;;4.30;;
35294;SDS011;21413;48.032;7.764;2023-08-17T13:28:36;4.07;;;3.70;;
35294;SDS011;21413;48.032;7.764;2023-08-17T13:31:02;6.33;;;3.30;;
35294;SDS011;21413;48.032;7.764;2023-08-17T13:33:28;5.93;;;3.23;;
35294;SDS011;21413;48.032;7.764;2023-08-17T13:35:57;6.77;;;4.17;;
35294;SDS011;21413;48.032;7.764;2023-08-17T13:38:23;4.33;;;3.80;;
35294;SDS011;21413;48.032;7.764;2023-08-17T13:40:52;5.90;;;3.63;;
35294;SDS011;21413;48.032;7.764;2023-08-17T13:43:20;4.93;;;4.10;;
35294;SDS011;21413;48.032;7.764;2023-08-17T13:45:46;4.43;;;3.77;;
35294;SDS011;21413;48.032;7.764;2023-08-17T13:48:12;8.23;;;4.70;;
35294;SDS011;21413;48.032;7.764;2023-08-17T13:50:38;5.23;;;4.10;;
35294;SDS011;21413;48.032;7.764;2023-08-17T13:53:04;6.43;;;3.90;;
35294;SDS011;21413;48.032;7.764;2023-08-17T13:55:33;5.60;;;4.10;;
35294;SDS011;21413;48.032;7.764;2023-08-17T13:57:59;3.87;;;3.67;;
35294;SDS011;21413;48.032;7.764;2023-08-17T14:00:25;4.30;;;4.00;;
35294;SDS011;21413;48.032;7.764;2023-08-17T14:02:54;5.83;;;5.20;;
35294;SDS011;21413;48.032;7.764;2023-08-17T14:05:22;8.90;;;4.47;;
35294;SDS011;21413;48.032;7.764;2023-08-17T14:07:48;5.77;;;5.37;;
35294;SDS011;21413;48.032;7.764;2023-08-17T14:10:14;5.03;;;4.63;;
35294;SDS011;21413;48.032;7.764;2023-08-17T14:12:40;5.17;;;4.87;;
35294;SDS011;21413;48.032;7.764;2023-08-17T14:15:06;4.67;;;4.20;;
35294;SDS011;21413;48.032;7.764;2023-08-17T14:17:32;7.23;;;5.57;;
35294;SDS011;21413;48.032;7.764;2023-08-17T14:20:01;4.27;;;4.10;;
35294;SDS011;21413;48.032;7.764;2023-08-17T14:22:29;4.83;;;4.53;;
35294;SDS011;21413;48.032;7.764;2023-08-17T14:24:55;4.67;;;4.20;;
35294;SDS011;21413;48.032;7.764;2023-08-17T14:27:23;5.50;;;5.00;;
35294;SDS011;21413;48.032;7.764;2023-08-17T14:29:52;6.83;;;4.77;;
35294;SDS011;21413;48.032;7.764;2023-08-17T14:32:20;5.00;;;4.23;;
35294;SDS011;21413;48.032;7.764;2023-08-17T14:34:46;4.30;;;4.07;;
35294;SDS011;21413;48.032;7.764;2023-08-17T14:37:12;9.53;;;4.70;;
35294;SDS011;21413;48.032;7.764;2023-08-17T14:39:38;4.77;;;4.50;;
35294;SDS011;21413;48.032;7.764;2023-08-17T14:42:06;7.33;;;5.03;;
35294;SDS011;21413;48.032;7.764;2023-08-17T14:44:34;7.33;;;5.03;;
35294;SDS011;21413;48.032;7.764;2023-08-17T14:47:00;7.90;;;5.43;;